Notice: Undefined index: language in /home/spanairv/public_html/vam/index.php on line 25
Spanair Virtual

 INFORMACIÓN METAR y TAF
METAR FOR LEIB
ADDS - METARS form results

(0810 UTC 22 January 2019)
Data provider http://aviationweather.gov/metar/data/
 
METAR text: LEIB 220800Z 00000KT 9999 FEW030 04/02 Q1016 NOSIG
Conditions at: LEIB (IBIZA/ES CODOLA , ES) observed 0800 UTC 22 January 2019
Temperature: 4.0°C (39°F)
Dewpoint: 2.0°C (36°F) [RH = 87%]
Pressure (altimeter): 30.00 inches Hg (1016.0 mb)
Winds: calm
Visibility: 6 or more miles (10+ km)
Ceiling: at least 12,000 feet AGL
Clouds: few clouds at 3000 feet AGL
Weather: no significant weather observed at this time

METAR text: LEIB 220730Z VRB01KT 9999 FEW040 04/01 Q1016 NOSIG
Conditions at: LEIB (IBIZA/ES CODOLA , ES) observed 0730 UTC 22 January 2019
Temperature: 4.0°C (39°F)
Dewpoint: 1.0°C (34°F) [RH = 81%]
Pressure (altimeter): 30.00 inches Hg (1016.0 mb)
Winds: variable direction winds at 1 MPH (1 knots; 0.5 m/s)
Visibility: 6 or more miles (10+ km)
Ceiling: at least 12,000 feet AGL
Clouds: few clouds at 4000 feet AGL
Weather: no significant weather observed at this time

Forecast for: LEIB (IBIZA/ES CODOLA , ES)
Text: TAF LEIB 220200Z 2203/2303 30007KT 9999 SCT020 SCT040 TX14/2212Z TN05/2206Z
Forecast period: 0300 UTC 22 January 2019 to 0300 UTC 23 January 2019
Forecast type: FROM: standard forecast or significant change
Winds: from the WNW (300 degrees) at 8 MPH (7 knots; 3.6 m/s)
Visibility: 6 or more miles 10+ km)
Ceiling: at least 12,000 feet AGL
Clouds: scattered clouds at 2000 feet AGL
scattered clouds at 4000 feet AGL
Weather: no significant weather forecast for this period

 MAPA DE AEROPUERTO

 INFORMACIÓN DE PISTA
Pista 06 Longitud 9186 ft Ancho 148 ft
Elevación 13 ft Umbral desplazado 0 ft Rumbo de pista 62
Pista 24 Longitud 9186 ft Ancho 148 ft
Elevación 16 ft Umbral desplazado 0 ft Rumbo de pista 242

 FRECUANCIAS DEL AEROPUERTO
Tipo APP Nombre PALMA APP Frecuencia 118.125 MHZ
Tipo APP Nombre APP Frecuencia 119.8 MHZ
Tipo ATIS Nombre ATIS Frecuencia 117.8 MHZ
Tipo GND Nombre GND Frecuencia 121.8 MHZ
Tipo TWR Nombre TWR Frecuencia 118.5 MHZ

 RADIO AYUDAS DEL AEROPUERTO
Tipo VOR-DME Nombre Ibiza Frecuencia 117800 KHZ
Tipo NDB Nombre Ibiza Frecuencia 394 KHZ





VAM [v2.6.2]

Normativa | Spanair Virtual © 2017 | Customized by JZ © 2017 for Spanair Virtual